sensor_id;sensor_type;location;lat;lon;timestamp;P1;durP1;ratioP1;P2;durP2;ratioP2
43793;SDS011;29414;44.798;20.366;2023-06-26T00:00:03;9.25;;;6.32;;
43793;SDS011;29414;44.798;20.366;2023-06-26T00:04:05;6.97;;;6.28;;
43793;SDS011;29414;44.798;20.366;2023-06-26T00:08:05;7.88;;;6.65;;
43793;SDS011;29414;44.798;20.366;2023-06-26T00:12:06;10.57;;;6.57;;
43793;SDS011;29414;44.798;20.366;2023-06-26T00:16:06;7.50;;;6.90;;
43793;SDS011;29414;44.798;20.366;2023-06-26T00:20:06;15.52;;;6.86;;
43793;SDS011;29414;44.798;20.366;2023-06-26T00:24:07;6.43;;;5.82;;
43793;SDS011;29414;44.798;20.366;2023-06-26T00:28:07;7.20;;;6.60;;
43793;SDS011;29414;44.798;20.366;2023-06-26T00:32:07;8.45;;;6.28;;
43793;SDS011;29414;44.798;20.366;2023-06-26T00:36:08;7.97;;;5.97;;
43793;SDS011;29414;44.798;20.366;2023-06-26T00:40:08;7.15;;;6.40;;
43793;SDS011;29414;44.798;20.366;2023-06-26T00:44:09;7.95;;;6.72;;
43793;SDS011;29414;44.798;20.366;2023-06-26T00:48:10;7.85;;;6.03;;
43793;SDS011;29414;44.798;20.366;2023-06-26T00:52:12;11.25;;;6.53;;
43793;SDS011;29414;44.798;20.366;2023-06-26T00:56:12;7.13;;;6.15;;
43793;SDS011;29414;44.798;20.366;2023-06-26T01:00:12;7.07;;;6.55;;
43793;SDS011;29414;44.798;20.366;2023-06-26T01:04:13;10.68;;;7.15;;
43793;SDS011;29414;44.798;20.366;2023-06-26T01:08:18;7.20;;;6.20;;
43793;SDS011;29414;44.798;20.366;2023-06-26T01:12:18;7.88;;;7.18;;
43793;SDS011;29414;44.798;20.366;2023-06-26T01:16:18;7.22;;;6.57;;
43793;SDS011;29414;44.798;20.366;2023-06-26T01:20:19;7.80;;;6.78;;
43793;SDS011;29414;44.798;20.366;2023-06-26T01:24:20;9.63;;;8.32;;
43793;SDS011;29414;44.798;20.366;2023-06-26T01:28:21;10.73;;;9.27;;
43793;SDS011;29414;44.798;20.366;2023-06-26T01:32:22;8.27;;;7.57;;
43793;SDS011;29414;44.798;20.366;2023-06-26T01:36:23;7.47;;;6.72;;
43793;SDS011;29414;44.798;20.366;2023-06-26T01:40:23;9.18;;;7.13;;
43793;SDS011;29414;44.798;20.366;2023-06-26T01:44:27;10.88;;;7.40;;
43793;SDS011;29414;44.798;20.366;2023-06-26T01:48:30;7.93;;;7.18;;
43793;SDS011;29414;44.798;20.366;2023-06-26T01:52:35;9.02;;;7.55;;
43793;SDS011;29414;44.798;20.366;2023-06-26T01:56:38;8.95;;;8.15;;
43793;SDS011;29414;44.798;20.366;2023-06-26T02:00:38;8.48;;;7.57;;
43793;SDS011;29414;44.798;20.366;2023-06-26T02:04:39;8.00;;;7.30;;
43793;SDS011;29414;44.798;20.366;2023-06-26T02:08:40;8.85;;;7.90;;
43793;SDS011;29414;44.798;20.366;2023-06-26T02:12:40;8.98;;;7.35;;
43793;SDS011;29414;44.798;20.366;2023-06-26T02:16:40;8.80;;;8.10;;
43793;SDS011;29414;44.798;20.366;2023-06-26T02:20:41;10.63;;;9.60;;
43793;SDS011;29414;44.798;20.366;2023-06-26T02:24:41;11.90;;;10.20;;
43793;SDS011;29414;44.798;20.366;2023-06-26T02:28:41;10.35;;;9.05;;
43793;SDS011;29414;44.798;20.366;2023-06-26T02:32:42;9.75;;;8.02;;
43793;SDS011;29414;44.798;20.366;2023-06-26T02:36:42;11.57;;;7.85;;
43793;SDS011;29414;44.798;20.366;2023-06-26T02:40:42;9.82;;;8.23;;
43793;SDS011;29414;44.798;20.366;2023-06-26T02:44:42;9.48;;;8.63;;
43793;SDS011;29414;44.798;20.366;2023-06-26T02:48:43;9.55;;;8.75;;
43793;SDS011;29414;44.798;20.366;2023-06-26T02:52:43;10.25;;;7.82;;
43793;SDS011;29414;44.798;20.366;2023-06-26T02:56:43;8.98;;;7.07;;
43793;SDS011;29414;44.798;20.366;2023-06-26T03:00:44;8.77;;;7.88;;
43793;SDS011;29414;44.798;20.366;2023-06-26T03:04:44;8.57;;;7.20;;
43793;SDS011;29414;44.798;20.366;2023-06-26T03:08:45;8.27;;;7.53;;
43793;SDS011;29414;44.798;20.366;2023-06-26T03:12:45;8.43;;;7.72;;
43793;SDS011;29414;44.798;20.366;2023-06-26T03:16:45;11.73;;;8.60;;
43793;SDS011;29414;44.798;20.366;2023-06-26T03:20:45;10.68;;;9.05;;
43793;SDS011;29414;44.798;20.366;2023-06-26T03:24:46;11.27;;;9.30;;
43793;SDS011;29414;44.798;20.366;2023-06-26T03:28:46;8.23;;;7.00;;
43793;SDS011;29414;44.798;20.366;2023-06-26T03:32:46;9.82;;;6.80;;
43793;SDS011;29414;44.798;20.366;2023-06-26T03:36:47;9.25;;;8.35;;
43793;SDS011;29414;44.798;20.366;2023-06-26T03:40:47;10.62;;;9.28;;
43793;SDS011;29414;44.798;20.366;2023-06-26T03:44:47;10.45;;;9.50;;
43793;SDS011;29414;44.798;20.366;2023-06-26T03:48:47;8.77;;;7.97;;
43793;SDS011;29414;44.798;20.366;2023-06-26T03:52:48;13.20;;;10.25;;
43793;SDS011;29414;44.798;20.366;2023-06-26T03:56:49;10.80;;;9.82;;
43793;SDS011;29414;44.798;20.366;2023-06-26T04:00:50;12.00;;;9.80;;
43793;SDS011;29414;44.798;20.366;2023-06-26T04:04:50;10.43;;;9.55;;
43793;SDS011;29414;44.798;20.366;2023-06-26T04:08:52;11.10;;;9.80;;
43793;SDS011;29414;44.798;20.366;2023-06-26T04:12:52;10.40;;;9.40;;
43793;SDS011;29414;44.798;20.366;2023-06-26T04:16:53;13.98;;;10.25;;
43793;SDS011;29414;44.798;20.366;2023-06-26T04:21:12;14.27;;;10.38;;
43793;SDS011;29414;44.798;20.366;2023-06-26T04:25:12;11.75;;;10.20;;
43793;SDS011;29414;44.798;20.366;2023-06-26T04:29:13;11.38;;;10.13;;
43793;SDS011;29414;44.798;20.366;2023-06-26T04:33:13;11.90;;;10.57;;
43793;SDS011;29414;44.798;20.366;2023-06-26T04:37:15;12.75;;;11.52;;
43793;SDS011;29414;44.798;20.366;2023-06-26T04:41:18;12.30;;;11.20;;
43793;SDS011;29414;44.798;20.366;2023-06-26T04:45:19;10.90;;;9.90;;
43793;SDS011;29414;44.798;20.366;2023-06-26T04:49:19;13.63;;;12.35;;
43793;SDS011;29414;44.798;20.366;2023-06-26T04:53:23;13.85;;;12.55;;
43793;SDS011;29414;44.798;20.366;2023-06-26T04:57:23;13.25;;;11.77;;
43793;SDS011;29414;44.798;20.366;2023-06-26T05:01:23;13.05;;;11.70;;
43793;SDS011;29414;44.798;20.366;2023-06-26T05:05:23;13.93;;;12.63;;
43793;SDS011;29414;44.798;20.366;2023-06-26T05:09:24;17.15;;;11.95;;
43793;SDS011;29414;44.798;20.366;2023-06-26T05:13:24;14.10;;;12.75;;
43793;SDS011;29414;44.798;20.366;2023-06-26T05:17:25;14.88;;;13.38;;
43793;SDS011;29414;44.798;20.366;2023-06-26T05:21:25;13.38;;;12.22;;
43793;SDS011;29414;44.798;20.366;2023-06-26T05:25:25;14.52;;;12.93;;
43793;SDS011;29414;44.798;20.366;2023-06-26T05:29:27;14.43;;;12.20;;
43793;SDS011;29414;44.798;20.366;2023-06-26T05:33:27;12.98;;;11.85;;
43793;SDS011;29414;44.798;20.366;2023-06-26T05:37:28;12.95;;;11.85;;
43793;SDS011;29414;44.798;20.366;2023-06-26T05:41:29;14.52;;;13.23;;
43793;SDS011;29414;44.798;20.366;2023-06-26T05:45:29;14.52;;;12.63;;
43793;SDS011;29414;44.798;20.366;2023-06-26T05:49:30;13.75;;;11.75;;
43793;SDS011;29414;44.798;20.366;2023-06-26T05:53:30;12.75;;;11.60;;
43793;SDS011;29414;44.798;20.366;2023-06-26T05:57:31;13.35;;;11.50;;
43793;SDS011;29414;44.798;20.366;2023-06-26T06:01:31;13.88;;;12.73;;
43793;SDS011;29414;44.798;20.366;2023-06-26T06:05:33;13.32;;;11.27;;
43793;SDS011;29414;44.798;20.366;2023-06-26T06:09:33;11.98;;;10.88;;
43793;SDS011;29414;44.798;20.366;2023-06-26T06:13:34;12.90;;;11.70;;
43793;SDS011;29414;44.798;20.366;2023-06-26T06:17:34;11.42;;;10.08;;
43793;SDS011;29414;44.798;20.366;2023-06-26T06:21:34;11.07;;;9.98;;
43793;SDS011;29414;44.798;20.366;2023-06-26T06:25:34;10.60;;;9.50;;
43793;SDS011;29414;44.798;20.366;2023-06-26T06:29:35;10.98;;;9.85;;
43793;SDS011;29414;44.798;20.366;2023-06-26T06:33:35;10.85;;;9.85;;
43793;SDS011;29414;44.798;20.366;2023-06-26T06:37:36;10.65;;;8.90;;
43793;SDS011;29414;44.798;20.366;2023-06-26T06:41:36;10.45;;;9.43;;
43793;SDS011;29414;44.798;20.366;2023-06-26T06:45:37;9.50;;;8.68;;
43793;SDS011;29414;44.798;20.366;2023-06-26T06:49:37;11.48;;;8.93;;
43793;SDS011;29414;44.798;20.366;2023-06-26T06:53:38;10.00;;;9.10;;
43793;SDS011;29414;44.798;20.366;2023-06-26T06:57:38;9.23;;;8.43;;
43793;SDS011;29414;44.798;20.366;2023-06-26T07:01:39;8.60;;;7.45;;
43793;SDS011;29414;44.798;20.366;2023-06-26T07:05:41;8.77;;;7.40;;
43793;SDS011;29414;44.798;20.366;2023-06-26T07:09:41;11.95;;;6.82;;
43793;SDS011;29414;44.798;20.366;2023-06-26T07:13:41;9.43;;;8.23;;
43793;SDS011;29414;44.798;20.366;2023-06-26T07:17:42;9.40;;;7.72;;
43793;SDS011;29414;44.798;20.366;2023-06-26T07:21:42;7.70;;;7.00;;
43793;SDS011;29414;44.798;20.366;2023-06-26T07:25:44;7.25;;;6.47;;
43793;SDS011;29414;44.798;20.366;2023-06-26T07:29:44;6.97;;;5.50;;
43793;SDS011;29414;44.798;20.366;2023-06-26T07:33:45;8.32;;;5.57;;
43793;SDS011;29414;44.798;20.366;2023-06-26T07:37:46;5.30;;;4.80;;
43793;SDS011;29414;44.798;20.366;2023-06-26T07:41:46;8.80;;;4.93;;
43793;SDS011;29414;44.798;20.366;2023-06-26T07:45:46;6.35;;;4.70;;
43793;SDS011;29414;44.798;20.366;2023-06-26T07:49:47;5.90;;;4.63;;
43793;SDS011;29414;44.798;20.366;2023-06-26T07:53:47;4.85;;;4.38;;
43793;SDS011;29414;44.798;20.366;2023-06-26T07:57:47;6.68;;;4.72;;
43793;SDS011;29414;44.798;20.366;2023-06-26T08:01:47;4.97;;;4.32;;
43793;SDS011;29414;44.798;20.366;2023-06-26T08:05:48;4.18;;;3.88;;
43793;SDS011;29414;44.798;20.366;2023-06-26T08:09:48;4.55;;;3.47;;
43793;SDS011;29414;44.798;20.366;2023-06-26T08:13:48;6.60;;;3.37;;
43793;SDS011;29414;44.798;20.366;2023-06-26T08:17:48;4.87;;;3.17;;
43793;SDS011;29414;44.798;20.366;2023-06-26T08:21:50;4.68;;;3.38;;
43793;SDS011;29414;44.798;20.366;2023-06-26T08:25:50;4.80;;;4.25;;
43793;SDS011;29414;44.798;20.366;2023-06-26T08:29:51;15.15;;;4.70;;
43793;SDS011;29414;44.798;20.366;2023-06-26T08:33:51;3.90;;;3.30;;
43793;SDS011;29414;44.798;20.366;2023-06-26T08:37:51;8.18;;;3.35;;
43793;SDS011;29414;44.798;20.366;2023-06-26T08:41:54;3.28;;;2.85;;
43793;SDS011;29414;44.798;20.366;2023-06-26T08:45:54;3.80;;;2.92;;
43793;SDS011;29414;44.798;20.366;2023-06-26T08:50:01;12.23;;;3.38;;
43793;SDS011;29414;44.798;20.366;2023-06-26T08:54:02;6.68;;;2.90;;
43793;SDS011;29414;44.798;20.366;2023-06-26T08:58:07;8.88;;;2.47;;
43793;SDS011;29414;44.798;20.366;2023-06-26T09:02:07;2.47;;;2.28;;
43793;SDS011;29414;44.798;20.366;2023-06-26T09:06:07;5.70;;;2.70;;
43793;SDS011;29414;44.798;20.366;2023-06-26T09:10:08;2.90;;;2.70;;
43793;SDS011;29414;44.798;20.366;2023-06-26T09:14:08;6.25;;;2.85;;
43793;SDS011;29414;44.798;20.366;2023-06-26T09:18:10;2.67;;;2.47;;
43793;SDS011;29414;44.798;20.366;2023-06-26T09:22:13;2.63;;;2.53;;
43793;SDS011;29414;44.798;20.366;2023-06-26T09:26:14;5.15;;;2.78;;
43793;SDS011;29414;44.798;20.366;2023-06-26T09:30:16;3.42;;;2.60;;
43793;SDS011;29414;44.798;20.366;2023-06-26T09:34:17;2.63;;;2.42;;
43793;SDS011;29414;44.798;20.366;2023-06-26T09:38:17;5.28;;;3.03;;
43793;SDS011;29414;44.798;20.366;2023-06-26T09:42:18;3.00;;;2.72;;
43793;SDS011;29414;44.798;20.366;2023-06-26T09:46:26;4.22;;;3.00;;
43793;SDS011;29414;44.798;20.366;2023-06-26T09:50:26;5.40;;;3.40;;
43793;SDS011;29414;44.798;20.366;2023-06-26T09:54:27;3.78;;;2.70;;
43793;SDS011;29414;44.798;20.366;2023-06-26T09:58:30;3.35;;;3.08;;
43793;SDS011;29414;44.798;20.366;2023-06-26T10:02:30;3.35;;;2.70;;
43793;SDS011;29414;44.798;20.366;2023-06-26T10:06:35;3.38;;;3.08;;
43793;SDS011;29414;44.798;20.366;2023-06-26T10:10:36;3.00;;;2.72;;
43793;SDS011;29414;44.798;20.366;2023-06-26T10:14:37;5.68;;;3.50;;
43793;SDS011;29414;44.798;20.366;2023-06-26T10:18:39;5.30;;;2.90;;
43793;SDS011;29414;44.798;20.366;2023-06-26T10:22:44;3.95;;;3.50;;
43793;SDS011;29414;44.798;20.366;2023-06-26T10:26:45;5.00;;;3.55;;
43793;SDS011;29414;44.798;20.366;2023-06-26T10:30:46;4.10;;;3.30;;
43793;SDS011;29414;44.798;20.366;2023-06-26T10:34:47;3.42;;;3.20;;
43793;SDS011;29414;44.798;20.366;2023-06-26T10:38:51;3.38;;;3.08;;
43793;SDS011;29414;44.798;20.366;2023-06-26T10:46:53;5.97;;;3.17;;
43793;SDS011;29414;44.798;20.366;2023-06-26T10:50:53;3.20;;;2.90;;
43793;SDS011;29414;44.798;20.366;2023-06-26T10:54:54;3.38;;;2.72;;
43793;SDS011;29414;44.798;20.366;2023-06-26T10:58:54;4.15;;;3.53;;
43793;SDS011;29414;44.798;20.366;2023-06-26T11:03:23;4.57;;;3.03;;
43793;SDS011;29414;44.798;20.366;2023-06-26T11:07:24;4.47;;;2.95;;
43793;SDS011;29414;44.798;20.366;2023-06-26T11:15:43;3.17;;;2.90;;
43793;SDS011;29414;44.798;20.366;2023-06-26T11:19:47;3.45;;;3.05;;
43793;SDS011;29414;44.798;20.366;2023-06-26T11:23:47;3.58;;;2.80;;
43793;SDS011;29414;44.798;20.366;2023-06-26T11:27:48;3.33;;;3.13;;
43793;SDS011;29414;44.798;20.366;2023-06-26T11:31:49;5.65;;;4.43;;
43793;SDS011;29414;44.798;20.366;2023-06-26T11:36:07;4.47;;;4.07;;
43793;SDS011;29414;44.798;20.366;2023-06-26T11:40:17;3.28;;;3.00;;
43793;SDS011;29414;44.798;20.366;2023-06-26T11:44:17;3.85;;;3.55;;
43793;SDS011;29414;44.798;20.366;2023-06-26T11:48:20;4.07;;;3.20;;
43793;SDS011;29414;44.798;20.366;2023-06-26T11:52:21;4.78;;;3.53;;
43793;SDS011;29414;44.798;20.366;2023-06-26T11:56:22;4.47;;;3.33;;
43793;SDS011;29414;44.798;20.366;2023-06-26T12:00:23;3.95;;;3.10;;
43793;SDS011;29414;44.798;20.366;2023-06-26T12:04:23;3.75;;;3.55;;
43793;SDS011;29414;44.798;20.366;2023-06-26T12:08:23;6.78;;;5.38;;
43793;SDS011;29414;44.798;20.366;2023-06-26T12:12:24;4.30;;;3.90;;
43793;SDS011;29414;44.798;20.366;2023-06-26T12:16:24;4.72;;;4.03;;
43793;SDS011;29414;44.798;20.366;2023-06-26T12:20:25;9.15;;;4.22;;
43793;SDS011;29414;44.798;20.366;2023-06-26T12:24:26;5.18;;;4.13;;
43793;SDS011;29414;44.798;20.366;2023-06-26T12:28:27;3.08;;;2.88;;
43793;SDS011;29414;44.798;20.366;2023-06-26T12:32:27;2.73;;;2.57;;
43793;SDS011;29414;44.798;20.366;2023-06-26T12:36:28;4.32;;;3.35;;
43793;SDS011;29414;44.798;20.366;2023-06-26T12:40:28;4.60;;;3.53;;
43793;SDS011;29414;44.798;20.366;2023-06-26T12:44:29;4.03;;;3.33;;
43793;SDS011;29414;44.798;20.366;2023-06-26T12:48:42;5.22;;;3.72;;
43793;SDS011;29414;44.798;20.366;2023-06-26T12:52:49;6.15;;;3.60;;
43793;SDS011;29414;44.798;20.366;2023-06-26T12:56:49;9.75;;;3.47;;
43793;SDS011;29414;44.798;20.366;2023-06-26T13:00:49;3.50;;;3.10;;
43793;SDS011;29414;44.798;20.366;2023-06-26T13:04:49;4.88;;;3.17;;
43793;SDS011;29414;44.798;20.366;2023-06-26T13:08:50;4.05;;;3.10;;
43793;SDS011;29414;44.798;20.366;2023-06-26T13:12:50;4.00;;;3.10;;
43793;SDS011;29414;44.798;20.366;2023-06-26T13:16:50;4.63;;;3.50;;
43793;SDS011;29414;44.798;20.366;2023-06-26T13:20:51;4.43;;;2.97;;
43793;SDS011;29414;44.798;20.366;2023-06-26T13:24:51;3.35;;;3.13;;
43793;SDS011;29414;44.798;20.366;2023-06-26T13:28:51;3.15;;;2.88;;
43793;SDS011;29414;44.798;20.366;2023-06-26T13:32:52;6.68;;;3.08;;
43793;SDS011;29414;44.798;20.366;2023-06-26T13:36:53;3.72;;;2.78;;
43793;SDS011;29414;44.798;20.366;2023-06-26T13:40:53;3.80;;;3.40;;
43793;SDS011;29414;44.798;20.366;2023-06-26T13:44:54;2.75;;;2.55;;
43793;SDS011;29414;44.798;20.366;2023-06-26T13:48:54;3.70;;;3.40;;
43793;SDS011;29414;44.798;20.366;2023-06-26T13:52:54;3.75;;;3.45;;
43793;SDS011;29414;44.798;20.366;2023-06-26T13:56:55;4.53;;;3.47;;
43793;SDS011;29414;44.798;20.366;2023-06-26T14:01:00;3.40;;;3.08;;
43793;SDS011;29414;44.798;20.366;2023-06-26T14:05:00;3.78;;;3.00;;
43793;SDS011;29414;44.798;20.366;2023-06-26T14:09:00;3.93;;;3.03;;
43793;SDS011;29414;44.798;20.366;2023-06-26T14:13:00;2.97;;;2.77;;
43793;SDS011;29414;44.798;20.366;2023-06-26T14:17:01;4.32;;;2.83;;
43793;SDS011;29414;44.798;20.366;2023-06-26T14:21:01;2.65;;;2.45;;
43793;SDS011;29414;44.798;20.366;2023-06-26T14:25:04;3.38;;;2.97;;
43793;SDS011;29414;44.798;20.366;2023-06-26T14:29:04;3.15;;;2.95;;
43793;SDS011;29414;44.798;20.366;2023-06-26T14:33:04;6.80;;;3.73;;
43793;SDS011;29414;44.798;20.366;2023-06-26T14:37:05;7.03;;;3.33;;
43793;SDS011;29414;44.798;20.366;2023-06-26T14:41:05;2.85;;;2.65;;
43793;SDS011;29414;44.798;20.366;2023-06-26T14:45:05;6.63;;;3.90;;
43793;SDS011;29414;44.798;20.366;2023-06-26T14:49:06;4.13;;;2.85;;
43793;SDS011;29414;44.798;20.366;2023-06-26T14:53:06;3.38;;;2.55;;
43793;SDS011;29414;44.798;20.366;2023-06-26T14:57:07;5.97;;;3.20;;
43793;SDS011;29414;44.798;20.366;2023-06-26T15:01:07;4.13;;;2.95;;
43793;SDS011;29414;44.798;20.366;2023-06-26T15:05:08;5.40;;;3.00;;
43793;SDS011;29414;44.798;20.366;2023-06-26T15:09:09;5.35;;;2.88;;
43793;SDS011;29414;44.798;20.366;2023-06-26T15:13:09;5.40;;;3.17;;
43793;SDS011;29414;44.798;20.366;2023-06-26T15:17:09;3.78;;;2.90;;
43793;SDS011;29414;44.798;20.366;2023-06-26T15:21:10;6.72;;;3.00;;
43793;SDS011;29414;44.798;20.366;2023-06-26T15:25:10;3.53;;;3.20;;
43793;SDS011;29414;44.798;20.366;2023-06-26T15:29:10;3.15;;;2.95;;
43793;SDS011;29414;44.798;20.366;2023-06-26T15:33:11;2.85;;;2.70;;
43793;SDS011;29414;44.798;20.366;2023-06-26T15:37:11;4.55;;;3.58;;
43793;SDS011;29414;44.798;20.366;2023-06-26T15:41:11;2.97;;;2.77;;
43793;SDS011;29414;44.798;20.366;2023-06-26T15:45:12;3.10;;;2.90;;
43793;SDS011;29414;44.798;20.366;2023-06-26T15:49:12;4.70;;;2.80;;
43793;SDS011;29414;44.798;20.366;2023-06-26T15:53:15;3.28;;;3.08;;
43793;SDS011;29414;44.798;20.366;2023-06-26T15:57:15;6.25;;;3.65;;
43793;SDS011;29414;44.798;20.366;2023-06-26T16:01:15;2.90;;;2.73;;
43793;SDS011;29414;44.798;20.366;2023-06-26T16:05:16;5.57;;;3.40;;
43793;SDS011;29414;44.798;20.366;2023-06-26T16:09:16;3.10;;;2.80;;
43793;SDS011;29414;44.798;20.366;2023-06-26T16:13:16;5.60;;;4.20;;
43793;SDS011;29414;44.798;20.366;2023-06-26T16:17:18;4.30;;;3.90;;
43793;SDS011;29414;44.798;20.366;2023-06-26T16:21:18;5.82;;;4.10;;
43793;SDS011;29414;44.798;20.366;2023-06-26T16:25:19;9.97;;;3.80;;
43793;SDS011;29414;44.798;20.366;2023-06-26T16:29:19;8.63;;;4.00;;
43793;SDS011;29414;44.798;20.366;2023-06-26T16:33:19;7.17;;;3.50;;
43793;SDS011;29414;44.798;20.366;2023-06-26T16:37:20;3.38;;;3.17;;
43793;SDS011;29414;44.798;20.366;2023-06-26T16:41:20;36.95;;;10.38;;
43793;SDS011;29414;44.798;20.366;2023-06-26T16:45:20;44.33;;;11.60;;
43793;SDS011;29414;44.798;20.366;2023-06-26T16:49:20;7.60;;;3.60;;
43793;SDS011;29414;44.798;20.366;2023-06-26T16:53:21;5.10;;;3.47;;
43793;SDS011;29414;44.798;20.366;2023-06-26T16:57:21;4.47;;;3.25;;
43793;SDS011;29414;44.798;20.366;2023-06-26T17:01:21;4.38;;;3.22;;
43793;SDS011;29414;44.798;20.366;2023-06-26T17:05:22;4.47;;;3.00;;
43793;SDS011;29414;44.798;20.366;2023-06-26T17:09:22;6.70;;;3.27;;
43793;SDS011;29414;44.798;20.366;2023-06-26T17:13:22;10.27;;;3.50;;
43793;SDS011;29414;44.798;20.366;2023-06-26T17:17:22;7.43;;;3.15;;
43793;SDS011;29414;44.798;20.366;2023-06-26T17:21:23;9.82;;;3.17;;
43793;SDS011;29414;44.798;20.366;2023-06-26T17:25:23;5.25;;;3.33;;
43793;SDS011;29414;44.798;20.366;2023-06-26T17:29:23;5.90;;;3.53;;
43793;SDS011;29414;44.798;20.366;2023-06-26T17:33:23;7.90;;;3.73;;
43793;SDS011;29414;44.798;20.366;2023-06-26T17:37:24;9.55;;;3.88;;
43793;SDS011;29414;44.798;20.366;2023-06-26T17:41:24;11.95;;;3.78;;
43793;SDS011;29414;44.798;20.366;2023-06-26T17:45:24;6.87;;;3.80;;
43793;SDS011;29414;44.798;20.366;2023-06-26T17:49:27;5.28;;;4.03;;
43793;SDS011;29414;44.798;20.366;2023-06-26T17:53:27;9.55;;;4.82;;
43793;SDS011;29414;44.798;20.366;2023-06-26T17:57:28;7.00;;;4.30;;
43793;SDS011;29414;44.798;20.366;2023-06-26T18:01:29;6.07;;;3.90;;
43793;SDS011;29414;44.798;20.366;2023-06-26T18:05:29;35.10;;;16.63;;
43793;SDS011;29414;44.798;20.366;2023-06-26T18:09:29;53.67;;;32.28;;
43793;SDS011;29414;44.798;20.366;2023-06-26T18:13:30;52.35;;;31.80;;
43793;SDS011;29414;44.798;20.366;2023-06-26T18:17:31;25.92;;;16.92;;
43793;SDS011;29414;44.798;20.366;2023-06-26T18:21:32;20.98;;;8.50;;
43793;SDS011;29414;44.798;20.366;2023-06-26T18:25:32;17.17;;;8.65;;
43793;SDS011;29414;44.798;20.366;2023-06-26T18:29:32;19.42;;;7.97;;
43793;SDS011;29414;44.798;20.366;2023-06-26T18:33:32;14.82;;;9.88;;
43793;SDS011;29414;44.798;20.366;2023-06-26T18:37:33;18.67;;;9.98;;
43793;SDS011;29414;44.798;20.366;2023-06-26T18:41:33;14.10;;;8.98;;
43793;SDS011;29414;44.798;20.366;2023-06-26T18:45:33;13.20;;;8.50;;
43793;SDS011;29414;44.798;20.366;2023-06-26T18:49:34;12.65;;;8.07;;
43793;SDS011;29414;44.798;20.366;2023-06-26T18:53:34;10.40;;;7.65;;
43793;SDS011;29414;44.798;20.366;2023-06-26T18:57:36;9.55;;;7.50;;
43793;SDS011;29414;44.798;20.366;2023-06-26T19:01:36;11.38;;;7.47;;
43793;SDS011;29414;44.798;20.366;2023-06-26T19:05:36;15.90;;;9.15;;
43793;SDS011;29414;44.798;20.366;2023-06-26T19:09:37;15.45;;;9.10;;
43793;SDS011;29414;44.798;20.366;2023-06-26T19:13:37;15.18;;;11.88;;
43793;SDS011;29414;44.798;20.366;2023-06-26T19:17:37;31.17;;;20.33;;
43793;SDS011;29414;44.798;20.366;2023-06-26T19:21:38;20.08;;;15.65;;
43793;SDS011;29414;44.798;20.366;2023-06-26T19:25:38;28.48;;;20.80;;
43793;SDS011;29414;44.798;20.366;2023-06-26T19:29:38;16.08;;;14.18;;
43793;SDS011;29414;44.798;20.366;2023-06-26T19:33:38;12.00;;;7.90;;
43793;SDS011;29414;44.798;20.366;2023-06-26T19:37:38;7.60;;;6.73;;
43793;SDS011;29414;44.798;20.366;2023-06-26T19:41:39;6.22;;;5.30;;
43793;SDS011;29414;44.798;20.366;2023-06-26T19:45:39;10.60;;;8.00;;
43793;SDS011;29414;44.798;20.366;2023-06-26T19:49:39;14.73;;;8.88;;
43793;SDS011;29414;44.798;20.366;2023-06-26T19:53:40;14.82;;;9.85;;
43793;SDS011;29414;44.798;20.366;2023-06-26T19:57:43;11.13;;;8.63;;
43793;SDS011;29414;44.798;20.366;2023-06-26T20:01:43;18.45;;;9.98;;
43793;SDS011;29414;44.798;20.366;2023-06-26T20:05:44;16.70;;;10.52;;
43793;SDS011;29414;44.798;20.366;2023-06-26T20:09:44;16.80;;;10.48;;
43793;SDS011;29414;44.798;20.366;2023-06-26T20:13:45;20.33;;;12.32;;
43793;SDS011;29414;44.798;20.366;2023-06-26T20:17:45;19.02;;;13.00;;
43793;SDS011;29414;44.798;20.366;2023-06-26T20:21:45;18.70;;;13.75;;
43793;SDS011;29414;44.798;20.366;2023-06-26T20:25:46;24.02;;;18.10;;
43793;SDS011;29414;44.798;20.366;2023-06-26T20:29:46;20.80;;;14.10;;
43793;SDS011;29414;44.798;20.366;2023-06-26T20:33:46;10.18;;;7.63;;
43793;SDS011;29414;44.798;20.366;2023-06-26T20:37:47;9.55;;;7.40;;
43793;SDS011;29414;44.798;20.366;2023-06-26T20:41:47;9.65;;;6.57;;
43793;SDS011;29414;44.798;20.366;2023-06-26T20:45:47;11.00;;;7.03;;
43793;SDS011;29414;44.798;20.366;2023-06-26T20:49:49;11.75;;;7.63;;
43793;SDS011;29414;44.798;20.366;2023-06-26T20:53:50;13.63;;;8.45;;
43793;SDS011;29414;44.798;20.366;2023-06-26T20:57:50;9.93;;;8.23;;
43793;SDS011;29414;44.798;20.366;2023-06-26T21:01:51;16.20;;;11.30;;
43793;SDS011;29414;44.798;20.366;2023-06-26T21:05:51;9.70;;;8.60;;
43793;SDS011;29414;44.798;20.366;2023-06-26T21:09:51;9.32;;;7.05;;
43793;SDS011;29414;44.798;20.366;2023-06-26T21:13:53;9.98;;;8.15;;
43793;SDS011;29414;44.798;20.366;2023-06-26T21:17:53;7.53;;;6.82;;
43793;SDS011;29414;44.798;20.366;2023-06-26T21:21:53;8.13;;;7.32;;
43793;SDS011;29414;44.798;20.366;2023-06-26T21:25:54;8.98;;;6.32;;
43793;SDS011;29414;44.798;20.366;2023-06-26T21:29:54;10.15;;;5.93;;
43793;SDS011;29414;44.798;20.366;2023-06-26T21:33:54;8.44;;;7.62;;
43793;SDS011;29414;44.798;20.366;2023-06-26T21:37:54;16.63;;;9.30;;
43793;SDS011;29414;44.798;20.366;2023-06-26T21:41:55;12.95;;;11.07;;
43793;SDS011;29414;44.798;20.366;2023-06-26T21:45:55;14.10;;;10.15;;
43793;SDS011;29414;44.798;20.366;2023-06-26T21:49:55;9.82;;;8.85;;
43793;SDS011;29414;44.798;20.366;2023-06-26T21:53:56;7.95;;;7.25;;
43793;SDS011;29414;44.798;20.366;2023-06-26T21:57:57;11.00;;;7.53;;
43793;SDS011;29414;44.798;20.366;2023-06-26T22:01:57;7.75;;;7.05;;
43793;SDS011;29414;44.798;20.366;2023-06-26T22:05:58;17.25;;;9.57;;
43793;SDS011;29414;44.798;20.366;2023-06-26T22:09:58;15.35;;;9.23;;
43793;SDS011;29414;44.798;20.366;2023-06-26T22:13:58;11.73;;;10.38;;
43793;SDS011;29414;44.798;20.366;2023-06-26T22:17:58;12.00;;;8.70;;
43793;SDS011;29414;44.798;20.366;2023-06-26T22:21:59;10.90;;;8.20;;
43793;SDS011;29414;44.798;20.366;2023-06-26T22:25:59;14.52;;;7.70;;
43793;SDS011;29414;44.798;20.366;2023-06-26T22:29:59;12.25;;;8.25;;
43793;SDS011;29414;44.798;20.366;2023-06-26T22:34:00;18.48;;;15.43;;
43793;SDS011;29414;44.798;20.366;2023-06-26T22:38:00;16.88;;;12.52;;
43793;SDS011;29414;44.798;20.366;2023-06-26T22:42:02;13.80;;;9.02;;
43793;SDS011;29414;44.798;20.366;2023-06-26T22:46:02;11.52;;;9.10;;
43793;SDS011;29414;44.798;20.366;2023-06-26T22:50:03;9.80;;;7.40;;
43793;SDS011;29414;44.798;20.366;2023-06-26T22:54:04;11.40;;;7.50;;
43793;SDS011;29414;44.798;20.366;2023-06-26T22:58:04;10.75;;;7.85;;
43793;SDS011;29414;44.798;20.366;2023-06-26T23:02:04;11.88;;;7.65;;
43793;SDS011;29414;44.798;20.366;2023-06-26T23:06:04;7.90;;;7.20;;
43793;SDS011;29414;44.798;20.366;2023-06-26T23:10:05;9.40;;;8.50;;
43793;SDS011;29414;44.798;20.366;2023-06-26T23:14:06;15.52;;;13.77;;
43793;SDS011;29414;44.798;20.366;2023-06-26T23:18:06;20.08;;;18.02;;
43793;SDS011;29414;44.798;20.366;2023-06-26T23:22:07;14.55;;;11.77;;
43793;SDS011;29414;44.798;20.366;2023-06-26T23:26:09;12.77;;;9.63;;
43793;SDS011;29414;44.798;20.366;2023-06-26T23:30:09;12.88;;;11.32;;
43793;SDS011;29414;44.798;20.366;2023-06-26T23:34:13;14.82;;;13.25;;
43793;SDS011;29414;44.798;20.366;2023-06-26T23:38:15;13.25;;;11.75;;
43793;SDS011;29414;44.798;20.366;2023-06-26T23:42:16;16.98;;;11.40;;
43793;SDS011;29414;44.798;20.366;2023-06-26T23:46:16;13.48;;;11.48;;